Time;durP1;ratioP1;P1;durP2;ratioP2;P2;SDS_P1;SDS_P2;PMS_P1;PMS_P2;Temp;Humidity;BMP_temperature;BMP_pressure;BME280_temperature;BME280_humidity;BME280_pressure;Samples;Min_cycle;Max_cycle;Signal;HPM_P1;HPM_P2
2023/08/25 00:00:22;;;;;;;6.75;0.70;;;;;;;;;;5061447;28;20045;-74
2023/08/25 00:02:54;;;;;;;3.53;0.65;;;;;;;;;;5060801;28;20652;-74
2023/08/25 00:05:26;;;;;;;1.08;0.47;;;;;;;;;;5061606;28;20048;-74
2023/08/25 00:07:56;;;;;;;3.05;0.60;;;;;;;;;;5062051;28;20057;-74
2023/08/25 00:10:27;;;;;;;1.02;0.50;;;;;;;;;;5060998;28;20055;-74
2023/08/25 00:12:57;;;;;;;7.80;0.73;;;;;;;;;;5059763;28;20052;-74
2023/08/25 00:15:29;;;;;;;2.38;0.60;;;;;;;;;;5061142;28;20063;-74
2023/08/25 00:18:00;;;;;;;2.92;0.70;;;;;;;;;;5060893;28;20495;-75
2023/08/25 00:20:32;;;;;;;1.67;0.50;;;;;;;;;;5059910;28;20060;-74
2023/08/25 00:23:03;;;;;;;3.67;0.80;;;;;;;;;;5061014;28;20067;-75
2023/08/25 00:25:35;;;;;;;2.45;0.63;;;;;;;;;;5061513;28;20048;-74
2023/08/25 00:28:06;;;;;;;5.43;0.63;;;;;;;;;;5060341;28;20067;-75
2023/08/25 00:30:36;;;;;;;1.10;1.00;;;;;;;;;;5063287;28;20048;-74
2023/08/25 00:33:08;;;;;;;1.23;0.70;;;;;;;;;;5064133;28;20048;-74
2023/08/25 00:35:42;;;;;;;3.55;0.60;;;;;;;;;;5065053;28;20049;-74
2023/08/25 00:38:15;;;;;;;3.58;0.70;;;;;;;;;;5046450;28;20063;-74
2023/08/25 00:40:46;;;;;;;2.30;0.50;;;;;;;;;;5065179;28;20051;-74
2023/08/25 00:43:17;;;;;;;5.00;1.02;;;;;;;;;;5063323;28;20048;-74
2023/08/25 00:45:48;;;;;;;2.80;0.63;;;;;;;;;;5062640;28;20071;-74
2023/08/25 00:48:19;;;;;;;2.38;0.55;;;;;;;;;;5064573;28;20507;-74
2023/08/25 00:50:53;;;;;;;2.33;0.68;;;;;;;;;;5062571;28;20519;-74
2023/08/25 00:53:24;;;;;;;2.33;0.70;;;;;;;;;;5065448;28;20048;-74
2023/08/25 00:55:56;;;;;;;4.15;0.63;;;;;;;;;;5063245;28;20396;-74
2023/08/25 00:58:26;;;;;;;2.22;0.60;;;;;;;;;;5064760;28;20056;-74
2023/08/25 01:01:01;;;;;;;4.47;1.08;;;;;;;;;;5065079;28;20048;-74
2023/08/25 01:03:33;;;;;;;3.28;1.88;;;;;;;;;;5065594;28;20063;-74
2023/08/25 01:06:08;;;;;;;9.95;1.95;;;;;;;;;;5064367;28;20040;-74
2023/08/25 01:08:40;;;;;;;7.47;2.08;;;;;;;;;;5063455;28;20947;-74
2023/08/25 01:11:19;;;;;;;5.40;2.20;;;;;;;;;;5064344;28;20147;-74
2023/08/25 01:14:06;;;;;;;4.03;2.35;;;;;;;;;;5063181;28;20052;-74
2023/08/25 01:16:59;;;;;;;3.80;1.52;;;;;;;;;;5062415;28;20060;-74
2023/08/25 01:19:35;;;;;;;5.88;1.40;;;;;;;;;;5054407;28;20061;-74
2023/08/25 01:22:17;;;;;;;3.75;1.83;;;;;;;;;;5061611;28;20849;-74
2023/08/25 01:24:51;;;;;;;3.28;2.08;;;;;;;;;;5062644;28;20051;-74
2023/08/25 01:27:23;;;;;;;2.20;1.23;;;;;;;;;;5064597;28;20056;-74
2023/08/25 01:29:55;;;;;;;5.10;1.42;;;;;;;;;;5064543;28;20052;-74
2023/08/25 01:32:26;;;;;;;3.13;1.40;;;;;;;;;;5064433;28;20052;-74
2023/08/25 01:34:56;;;;;;;1.02;0.93;;;;;;;;;;5062822;28;20427;-74
2023/08/25 01:37:33;;;;;;;3.35;1.05;;;;;;;;;;5063887;28;20075;-74
2023/08/25 01:40:14;;;;;;;3.13;1.70;;;;;;;;;;5062708;28;20055;-74
2023/08/25 01:42:49;;;;;;;7.80;2.28;;;;;;;;;;5063017;28;20367;-74
2023/08/25 01:45:24;;;;;;;3.53;1.45;;;;;;;;;;5064513;28;20040;-74
2023/08/25 01:47:57;;;;;;;1.63;0.85;;;;;;;;;;5064526;28;20051;-74
2023/08/25 01:50:28;;;;;;;2.97;0.60;;;;;;;;;;5062519;28;20048;-74
2023/08/25 01:52:59;;;;;;;0.88;0.70;;;;;;;;;;5063980;28;20483;-74
2023/08/25 01:55:31;;;;;;;1.48;0.75;;;;;;;;;;5063707;28;20040;-74
2023/08/25 01:58:03;;;;;;;1.33;0.75;;;;;;;;;;5061435;28;20052;-74
2023/08/25 02:00:33;;;;;;;4.13;0.50;;;;;;;;;;5062029;28;20055;-74
2023/08/25 02:03:04;;;;;;;2.40;0.75;;;;;;;;;;5062331;28;20056;-74
2023/08/25 02:05:35;;;;;;;3.58;0.70;;;;;;;;;;5061867;28;20529;-74
2023/08/25 02:08:07;;;;;;;1.00;0.68;;;;;;;;;;5061317;28;20044;-74
2023/08/25 02:10:38;;;;;;;2.83;0.95;;;;;;;;;;5063361;28;20495;-74
2023/08/25 02:13:09;;;;;;;1.40;0.60;;;;;;;;;;5063172;28;20044;-75
2023/08/25 02:15:45;;;;;;;1.60;0.70;;;;;;;;;;5062103;28;20045;-74
2023/08/25 02:18:17;;;;;;;3.05;0.70;;;;;;;;;;5062030;28;20064;-74
2023/08/25 02:20:47;;;;;;;3.70;0.80;;;;;;;;;;5061595;28;20063;-75
2023/08/25 02:23:18;;;;;;;1.23;0.60;;;;;;;;;;5062914;28;20052;-74
2023/08/25 02:25:48;;;;;;;3.15;0.95;;;;;;;;;;5062902;28;20058;-74
2023/08/25 02:28:20;;;;;;;2.50;0.98;;;;;;;;;;5061084;28;20040;-74
2023/08/25 02:30:51;;;;;;;6.93;1.20;;;;;;;;;;5061372;28;20415;-74
2023/08/25 02:33:22;;;;;;;5.55;1.23;;;;;;;;;;5062945;28;20055;-74
2023/08/25 02:35:53;;;;;;;2.15;1.10;;;;;;;;;;5061397;28;20060;-74
2023/08/25 02:38:24;;;;;;;4.10;1.10;;;;;;;;;;5062807;28;20044;-74
2023/08/25 02:40:55;;;;;;;3.60;0.75;;;;;;;;;;5062580;28;20067;-74
2023/08/25 02:43:26;;;;;;;2.42;0.60;;;;;;;;;;5062442;28;20052;-74
2023/08/25 02:45:59;;;;;;;1.30;0.60;;;;;;;;;;5063316;28;20384;-74
2023/08/25 02:48:32;;;;;;;3.75;1.35;;;;;;;;;;5061454;28;20079;-74
2023/08/25 02:51:04;;;;;;;5.25;1.27;;;;;;;;;;5061004;28;20426;-74
2023/08/25 02:53:35;;;;;;;5.20;1.23;;;;;;;;;;5062684;28;20048;-74
2023/08/25 02:56:06;;;;;;;5.05;0.90;;;;;;;;;;5060858;28;20053;-74
2023/08/25 02:58:37;;;;;;;2.13;1.02;;;;;;;;;;5060951;28;20052;-74
2023/08/25 03:01:12;;;;;;;4.32;0.80;;;;;;;;;;5062454;28;20060;-74
2023/08/25 03:03:44;;;;;;;2.03;0.73;;;;;;;;;;5061031;28;20068;-74
2023/08/25 03:06:16;;;;;;;2.25;1.00;;;;;;;;;;5060374;28;20055;-74
2023/08/25 03:08:47;;;;;;;1.65;0.73;;;;;;;;;;5062878;28;20040;-74
2023/08/25 03:11:18;;;;;;;8.43;0.93;;;;;;;;;;5060775;28;20586;-74
2023/08/25 03:13:50;;;;;;;2.53;1.20;;;;;;;;;;5059873;28;20052;-74
2023/08/25 03:16:20;;;;;;;1.92;0.80;;;;;;;;;;5063126;28;20044;-74
2023/08/25 03:18:51;;;;;;;2.95;0.77;;;;;;;;;;5061994;28;20048;-74
2023/08/25 03:21:27;;;;;;;0.90;0.70;;;;;;;;;;5060023;28;20131;-74
2023/08/25 03:23:58;;;;;;;1.35;0.70;;;;;;;;;;5059914;28;20049;-74
2023/08/25 03:26:30;;;;;;;2.60;0.85;;;;;;;;;;5060474;28;20056;-74
2023/08/25 03:29:01;;;;;;;3.80;1.00;;;;;;;;;;5061471;28;20049;-74
2023/08/25 03:31:32;;;;;;;3.28;1.40;;;;;;;;;;5061877;28;20048;-74
2023/08/25 03:34:03;;;;;;;1.45;0.90;;;;;;;;;;5060079;28;20064;-74
2023/08/25 03:36:34;;;;;;;2.72;0.98;;;;;;;;;;5060100;28;20057;-74
2023/08/25 03:39:05;;;;;;;3.65;0.90;;;;;;;;;;5060258;28;20056;-74
2023/08/25 03:41:35;;;;;;;5.07;0.65;;;;;;;;;;5061562;28;20407;-74
2023/08/25 03:44:06;;;;;;;3.60;0.90;;;;;;;;;;5062576;28;20503;-74
2023/08/25 03:46:38;;;;;;;1.92;0.77;;;;;;;;;;5060092;28;20052;-74
2023/08/25 03:49:09;;;;;;;1.67;0.65;;;;;;;;;;5061725;28;20550;-74
2023/08/25 03:51:42;;;;;;;7.13;0.93;;;;;;;;;;5043462;28;20060;-74
2023/08/25 03:54:13;;;;;;;6.15;0.95;;;;;;;;;;5059339;28;20218;-74
2023/08/25 03:56:45;;;;;;;4.47;0.80;;;;;;;;;;5060685;28;20044;-74
2023/08/25 03:59:17;;;;;;;1.75;0.50;;;;;;;;;;5059948;28;20044;-74
2023/08/25 04:01:48;;;;;;;0.98;0.60;;;;;;;;;;5060058;28;20048;-74
2023/08/25 04:04:18;;;;;;;4.80;0.70;;;;;;;;;;5061434;28;20582;-74
2023/08/25 04:06:49;;;;;;;8.13;0.95;;;;;;;;;;5064177;28;20044;-74
2023/08/25 04:09:20;;;;;;;3.13;0.65;;;;;;;;;;5065233;28;20535;-74
2023/08/25 04:11:53;;;;;;;5.53;0.90;;;;;;;;;;5061669;28;20055;-74
2023/08/25 04:14:24;;;;;;;3.60;0.68;;;;;;;;;;5061306;28;20422;-74
2023/08/25 04:16:55;;;;;;;1.20;0.47;;;;;;;;;;5060954;28;20059;-74
2023/08/25 04:19:27;;;;;;;4.10;1.00;;;;;;;;;;5061240;28;20464;-74
2023/08/25 04:21:59;;;;;;;1.80;0.70;;;;;;;;;;5063094;28;20083;-74
2023/08/25 04:24:30;;;;;;;1.67;0.63;;;;;;;;;;5061959;28;20063;-74
2023/08/25 04:27:01;;;;;;;3.15;0.73;;;;;;;;;;5061001;28;20519;-74
2023/08/25 04:29:33;;;;;;;11.70;1.20;;;;;;;;;;5062295;28;20500;-74
2023/08/25 04:32:04;;;;;;;7.45;0.98;;;;;;;;;;5061038;28;20048;-74
2023/08/25 04:34:40;;;;;;;3.38;0.85;;;;;;;;;;5062415;28;20036;-74
2023/08/25 04:37:11;;;;;;;2.55;0.90;;;;;;;;;;5062443;28;20392;-74
2023/08/25 04:39:42;;;;;;;5.10;0.73;;;;;;;;;;5060215;28;20052;-74
2023/08/25 04:42:12;;;;;;;3.33;0.55;;;;;;;;;;5060584;28;20063;-74
2023/08/25 04:44:43;;;;;;;1.02;0.68;;;;;;;;;;5062191;28;20059;-74
2023/08/25 04:47:16;;;;;;;1.45;0.38;;;;;;;;;;5060174;28;20395;-74
2023/08/25 04:49:48;;;;;;;2.35;0.70;;;;;;;;;;5060382;28;20841;-74
2023/08/25 04:52:18;;;;;;;1.98;0.70;;;;;;;;;;5060170;28;20049;-74
2023/08/25 04:54:49;;;;;;;1.63;0.50;;;;;;;;;;5062452;28;20048;-74
2023/08/25 04:57:20;;;;;;;4.40;0.77;;;;;;;;;;5043595;28;20052;-74
2023/08/25 04:59:52;;;;;;;4.60;0.45;;;;;;;;;;5060628;28;20060;-74
2023/08/25 05:02:22;;;;;;;5.28;0.70;;;;;;;;;;5062113;28;20052;-74
2023/08/25 05:04:53;;;;;;;2.72;0.77;;;;;;;;;;5043744;28;20064;-74
2023/08/25 05:07:25;;;;;;;10.07;0.90;;;;;;;;;;5060616;28;20049;-74
2023/08/25 05:09:57;;;;;;;2.08;0.63;;;;;;;;;;5061903;28;20048;-74
2023/08/25 05:12:28;;;;;;;4.25;0.52;;;;;;;;;;5060083;28;20052;-74
2023/08/25 05:15:00;;;;;;;4.85;0.75;;;;;;;;;;5060613;28;20044;-74
2023/08/25 05:17:31;;;;;;;1.90;0.57;;;;;;;;;;5059315;28;20059;-74
2023/08/25 05:20:04;;;;;;;0.95;0.30;;;;;;;;;;5059614;28;20435;-74
2023/08/25 05:22:36;;;;;;;2.25;0.93;;;;;;;;;;5061208;28;20063;-74
2023/08/25 05:25:07;;;;;;;1.63;0.50;;;;;;;;;;5060514;28;20049;-74
2023/08/25 05:27:39;;;;;;;1.48;0.52;;;;;;;;;;5061207;28;20063;-74
2023/08/25 05:30:17;;;;;;;1.85;0.60;;;;;;;;;;5059810;28;20052;-74
2023/08/25 05:32:49;;;;;;;1.85;0.63;;;;;;;;;;5060042;28;20778;-75
2023/08/25 05:35:30;;;;;;;2.97;0.50;;;;;;;;;;5059555;28;20052;-74
2023/08/25 05:38:01;;;;;;;4.38;0.43;;;;;;;;;;5059642;28;20044;-74
2023/08/25 05:40:32;;;;;;;0.85;0.45;;;;;;;;;;5060809;28;20056;-74
2023/08/25 05:43:02;;;;;;;4.82;0.70;;;;;;;;;;5061951;28;20415;-74
2023/08/25 05:45:33;;;;;;;5.60;0.63;;;;;;;;;;5059958;28;20045;-74
2023/08/25 05:48:05;;;;;;;2.60;0.50;;;;;;;;;;5059270;28;20055;-74
2023/08/25 05:50:36;;;;;;;2.33;0.60;;;;;;;;;;5058748;28;20059;-74
2023/08/25 05:53:10;;;;;;;0.63;0.43;;;;;;;;;;5061051;28;20064;-74
2023/08/25 05:55:41;;;;;;;4.55;0.80;;;;;;;;;;5061428;28;20488;-74
2023/08/25 05:58:12;;;;;;;2.67;0.40;;;;;;;;;;5060571;28;20377;-74
2023/08/25 06:00:43;;;;;;;5.55;0.47;;;;;;;;;;5061024;28;20399;-74
2023/08/25 06:03:16;;;;;;;0.60;0.60;;;;;;;;;;5060410;28;20052;-74
2023/08/25 06:05:47;;;;;;;1.48;0.57;;;;;;;;;;5060517;28;20044;-74
2023/08/25 06:08:18;;;;;;;1.23;0.82;;;;;;;;;;5060533;28;20049;-74
2023/08/25 06:10:53;;;;;;;0.73;0.40;;;;;;;;;;5060171;28;20052;-74
2023/08/25 06:13:27;;;;;;;5.40;0.63;;;;;;;;;;5061125;28;20495;-74
2023/08/25 06:15:57;;;;;;;3.55;0.55;;;;;;;;;;5061123;28;21104;-74
2023/08/25 06:18:29;;;;;;;0.82;0.40;;;;;;;;;;5060574;28;20755;-74
2023/08/25 06:21:00;;;;;;;0.93;0.90;;;;;;;;;;5060561;28;20051;-74
2023/08/25 06:23:31;;;;;;;4.18;0.47;;;;;;;;;;5059174;28;20067;-74
2023/08/25 06:26:01;;;;;;;2.15;0.65;;;;;;;;;;5060298;28;20040;-74
2023/08/25 06:28:33;;;;;;;1.67;0.45;;;;;;;;;;5060298;28;20856;-74
2023/08/25 06:31:03;;;;;;;0.88;0.47;;;;;;;;;;5060123;28;20063;-74
2023/08/25 06:33:34;;;;;;;4.50;0.60;;;;;;;;;;5060458;28;20072;-74
2023/08/25 06:36:05;;;;;;;4.65;0.90;;;;;;;;;;5060480;28;20056;-74
2023/08/25 06:38:36;;;;;;;2.95;0.43;;;;;;;;;;5060214;28;20404;-74
2023/08/25 06:41:23;;;;;;;2.60;0.47;;;;;;;;;;5059745;28;21045;-73
2023/08/25 06:43:59;;;;;;;0.73;0.52;;;;;;;;;;5058646;28;20423;-74
2023/08/25 06:46:29;;;;;;;1.13;0.57;;;;;;;;;;5060568;28;20036;-74
2023/08/25 06:49:00;;;;;;;1.70;0.28;;;;;;;;;;5060593;28;20059;-74
2023/08/25 06:51:32;;;;;;;4.90;0.70;;;;;;;;;;5060496;28;20049;-73
2023/08/25 06:54:03;;;;;;;0.90;0.30;;;;;;;;;;5059645;28;20530;-74
2023/08/25 06:56:35;;;;;;;2.83;0.60;;;;;;;;;;5059739;28;20100;-74
2023/08/25 06:59:06;;;;;;;2.03;0.22;;;;;;;;;;5058091;28;20056;-74
2023/08/25 07:01:37;;;;;;;0.52;0.50;;;;;;;;;;5059487;28;20507;-74
2023/08/25 07:04:07;;;;;;;2.67;0.40;;;;;;;;;;5059332;28;20138;-74
2023/08/25 07:06:39;;;;;;;1.45;0.50;;;;;;;;;;5059624;28;20056;-74
2023/08/25 07:09:11;;;;;;;4.03;0.63;;;;;;;;;;5059459;28;20407;-74
2023/08/25 07:11:42;;;;;;;2.22;0.70;;;;;;;;;;5058038;28;21157;-74
2023/08/25 07:14:13;;;;;;;3.22;0.98;;;;;;;;;;5059396;28;20048;-74
2023/08/25 07:16:44;;;;;;;4.25;0.60;;;;;;;;;;5059162;28;20048;-74
2023/08/25 07:19:16;;;;;;;1.30;0.80;;;;;;;;;;5058141;28;20052;-74
2023/08/25 07:21:48;;;;;;;1.25;0.60;;;;;;;;;;5059584;28;20071;-74
2023/08/25 07:24:20;;;;;;;1.83;0.40;;;;;;;;;;5059926;28;20048;-74
2023/08/25 07:26:51;;;;;;;4.50;0.82;;;;;;;;;;5059807;28;20048;-74
2023/08/25 07:29:21;;;;;;;0.60;0.50;;;;;;;;;;5057735;28;20162;-74
2023/08/25 07:31:53;;;;;;;0.73;0.55;;;;;;;;;;5059839;28;20057;-74
2023/08/25 07:34:24;;;;;;;2.53;0.55;;;;;;;;;;5059389;28;20510;-74
2023/08/25 07:36:54;;;;;;;1.13;0.60;;;;;;;;;;5058395;28;20586;-74
2023/08/25 07:39:25;;;;;;;2.00;0.73;;;;;;;;;;5058418;28;20052;-74
2023/08/25 07:41:57;;;;;;;1.80;0.90;;;;;;;;;;5059351;28;20048;-74
2023/08/25 07:44:29;;;;;;;2.58;0.47;;;;;;;;;;5058944;28;20057;-74
2023/08/25 07:46:59;;;;;;;0.95;0.80;;;;;;;;;;5057047;28;20056;-74
2023/08/25 07:49:30;;;;;;;1.27;0.63;;;;;;;;;;5058672;28;20411;-74
2023/08/25 07:52:03;;;;;;;3.65;0.80;;;;;;;;;;5058961;28;20506;-74
2023/08/25 07:54:35;;;;;;;2.00;0.73;;;;;;;;;;5059367;28;20048;-74
2023/08/25 07:57:05;;;;;;;6.30;1.58;;;;;;;;;;5059302;28;20052;-74
2023/08/25 07:59:36;;;;;;;2.92;1.05;;;;;;;;;;5058900;28;20048;-74
2023/08/25 08:02:08;;;;;;;4.15;1.00;;;;;;;;;;5058593;28;20418;-74
2023/08/25 08:04:39;;;;;;;3.75;1.08;;;;;;;;;;5059027;28;20059;-74
2023/08/25 08:07:10;;;;;;;4.80;0.93;;;;;;;;;;5059100;28;20095;-74
2023/08/25 08:09:41;;;;;;;3.75;1.20;;;;;;;;;;5058781;28;20052;-74
2023/08/25 08:12:11;;;;;;;4.97;1.40;;;;;;;;;;5058471;28;20055;-74
2023/08/25 08:14:43;;;;;;;6.68;1.35;;;;;;;;;;5061054;28;20087;-74
2023/08/25 08:17:15;;;;;;;9.75;1.92;;;;;;;;;;5061869;28;20663;-75
2023/08/25 08:19:45;;;;;;;5.35;1.60;;;;;;;;;;5061497;28;20404;-74
2023/08/25 08:22:17;;;;;;;2.97;0.90;;;;;;;;;;5060883;28;20040;-74
2023/08/25 08:24:49;;;;;;;1.80;1.23;;;;;;;;;;5062550;28;20057;-74
2023/08/25 08:27:20;;;;;;;2.72;1.00;;;;;;;;;;5061514;28;20525;-74
2023/08/25 08:29:52;;;;;;;4.00;0.70;;;;;;;;;;5061546;28;20048;-73
2023/08/25 08:32:24;;;;;;;4.68;1.20;;;;;;;;;;5061462;28;20048;-74
2023/08/25 08:34:57;;;;;;;5.45;1.60;;;;;;;;;;5061363;28;20048;-74
2023/08/25 08:37:28;;;;;;;2.90;1.17;;;;;;;;;;5061743;28;20419;-74
2023/08/25 08:39:58;;;;;;;4.10;0.77;;;;;;;;;;5062212;28;20055;-74
2023/08/25 08:42:30;;;;;;;4.15;1.05;;;;;;;;;;5061229;28;20057;-74
2023/08/25 08:45:07;;;;;;;1.95;0.90;;;;;;;;;;5060403;28;20053;-74
2023/08/25 08:47:40;;;;;;;8.27;0.95;;;;;;;;;;5061421;28;20052;-73
2023/08/25 08:50:11;;;;;;;2.45;0.90;;;;;;;;;;5061534;28;20044;-74
2023/08/25 08:52:47;;;;;;;2.90;1.00;;;;;;;;;;5064969;28;20074;-75
2023/08/25 08:55:20;;;;;;;1.48;0.82;;;;;;;;;;5065313;28;20664;-74
2023/08/25 08:57:51;;;;;;;2.83;1.25;;;;;;;;;;5065090;28;20049;-74
2023/08/25 09:00:21;;;;;;;2.03;0.80;;;;;;;;;;5064763;28;20052;-75
2023/08/25 09:02:53;;;;;;;2.35;1.15;;;;;;;;;;5063370;28;20044;-74
2023/08/25 09:05:28;;;;;;;1.80;1.00;;;;;;;;;;5064957;28;20810;-74
2023/08/25 09:08:06;;;;;;;2.05;1.17;;;;;;;;;;5065387;28;20044;-74
2023/08/25 09:10:37;;;;;;;3.85;0.95;;;;;;;;;;5064715;28;20041;-74
2023/08/25 09:13:08;;;;;;;2.20;1.10;;;;;;;;;;5063971;28;20495;-74
2023/08/25 09:15:39;;;;;;;5.90;1.33;;;;;;;;;;5065382;28;20051;-75
2023/08/25 09:18:10;;;;;;;4.85;1.80;;;;;;;;;;5064014;28;20056;-74
2023/08/25 09:20:40;;;;;;;6.30;1.27;;;;;;;;;;5064880;28;20072;-74
2023/08/25 09:23:11;;;;;;;3.03;1.50;;;;;;;;;;5064409;28;20067;-74
2023/08/25 09:25:43;;;;;;;7.13;1.50;;;;;;;;;;5064567;28;20095;-74
2023/08/25 09:28:14;;;;;;;3.40;1.75;;;;;;;;;;5062725;28;20075;-74
2023/08/25 09:30:44;;;;;;;15.48;1.75;;;;;;;;;;5064649;28;20053;-74
2023/08/25 09:33:16;;;;;;;6.05;1.75;;;;;;;;;;5064536;28;20071;-74
2023/08/25 09:35:46;;;;;;;30.05;2.13;;;;;;;;;;5062722;28;20080;-74
2023/08/25 09:38:22;;;;;;;14.27;1.45;;;;;;;;;;5064293;28;20044;-76
2023/08/25 09:40:53;;;;;;;20.52;1.95;;;;;;;;;;5064179;28;20060;-75
2023/08/25 09:43:33;;;;;;;38.28;1.55;;;;;;;;;;5064089;28;20047;-78
2023/08/25 09:46:11;;;;;;;19.83;1.60;;;;;;;;;;5064478;28;20408;-76
2023/08/25 09:48:45;;;;;;;20.80;1.15;;;;;;;;;;5063705;28;20083;-75
2023/08/25 09:51:16;;;;;;;39.40;3.53;;;;;;;;;;5063989;28;20055;-75
2023/08/25 09:53:50;;;;;;;52.90;2.03;;;;;;;;;;5063952;28;20059;-73
2023/08/25 09:56:22;;;;;;;33.60;2.30;;;;;;;;;;5063592;28;20098;-77
2023/08/25 09:58:54;;;;;;;52.10;2.28;;;;;;;;;;5063485;28;20499;-78
2023/08/25 10:01:25;;;;;;;95.00;6.10;;;;;;;;;;5064614;28;20048;-79
2023/08/25 10:04:01;;;;;;;60.22;2.13;;;;;;;;;;5063278;28;20391;-73
2023/08/25 10:06:34;;;;;;;52.65;2.63;;;;;;;;;;5064055;28;20053;-75
2023/08/25 10:09:07;;;;;;;71.82;3.25;;;;;;;;;;5063461;28;20498;-73
2023/08/25 10:11:41;;;;;;;113.45;3.10;;;;;;;;;;5063254;28;20086;-75
2023/08/25 10:14:13;;;;;;;51.30;1.92;;;;;;;;;;5063538;28;20499;-74
2023/08/25 10:16:54;;;;;;;47.20;2.67;;;;;;;;;;5061969;28;20060;-74
2023/08/25 10:19:28;;;;;;;60.80;2.08;;;;;;;;;;5063689;28;20071;-73
2023/08/25 10:22:04;;;;;;;16.23;2.83;;;;;;;;;;5062818;28;20064;-73
2023/08/25 10:24:38;;;;;;;50.80;1.50;;;;;;;;;;5062849;28;20052;-75
2023/08/25 10:27:10;;;;;;;5.60;0.80;;;;;;;;;;5063249;28;20049;-73
2023/08/25 10:29:42;;;;;;;44.83;2.05;;;;;;;;;;5061869;28;20059;-74
2023/08/25 10:32:14;;;;;;;24.17;1.30;;;;;;;;;;5063205;28;20043;-74
2023/08/25 10:34:46;;;;;;;12.00;1.75;;;;;;;;;;5063904;28;20052;-74
2023/08/25 10:37:30;;;;;;;12.48;1.58;;;;;;;;;;5063735;28;20044;-80
2023/08/25 10:40:11;;;;;;;33.30;1.48;;;;;;;;;;5062849;28;20400;-78
2023/08/25 10:42:43;;;;;;;27.80;1.23;;;;;;;;;;5062911;28;20043;-74
2023/08/25 10:45:15;;;;;;;27.95;2.50;;;;;;;;;;5063054;28;20051;-73
2023/08/25 10:47:51;;;;;;;16.13;0.90;;;;;;;;;;5063164;28;20071;-74
2023/08/25 10:50:22;;;;;;;;;;;;;;;;;;5062666;28;20056;-75
2023/08/25 10:52:54;;;;;;;66.28;1.83;;;;;;;;;;5062518;28;20307;-78
2023/08/25 10:55:32;;;;;;;55.15;2.05;;;;;;;;;;5063593;28;20067;-74
2023/08/25 10:58:05;;;;;;;32.95;1.40;;;;;;;;;;5063026;28;20052;-74
2023/08/25 11:00:43;;;;;;;28.70;1.15;;;;;;;;;;5063014;28;20541;-75
2023/08/25 11:03:15;;;;;;;41.53;1.52;;;;;;;;;;5061499;28;20060;-74
2023/08/25 11:05:47;;;;;;;22.80;1.30;;;;;;;;;;5063405;28;20049;-74
2023/08/25 11:08:29;;;;;;;23.52;1.20;;;;;;;;;;5062491;28;20047;-74
2023/08/25 11:11:12;;;;;;;39.72;2.42;;;;;;;;;;5062225;28;20055;-74
2023/08/25 11:13:43;;;;;;;53.30;1.45;;;;;;;;;;5062226;28;20057;-74
2023/08/25 11:16:15;;;;;;;35.05;1.70;;;;;;;;;;5061042;28;20044;-74
2023/08/25 11:18:46;;;;;;;48.85;1.83;;;;;;;;;;5061774;28;20045;-75
2023/08/25 11:21:17;;;;;;;88.10;3.17;;;;;;;;;;5060731;28;20071;-75
2023/08/25 11:23:48;;;;;;;69.45;2.15;;;;;;;;;;5060699;28;20059;-75
2023/08/25 11:26:19;;;;;;;39.58;1.48;;;;;;;;;;5062044;28;20063;-76
2023/08/25 11:28:52;;;;;;;100.55;2.38;;;;;;;;;;5061934;28;20055;-74
2023/08/25 11:31:23;;;;;;;34.50;1.73;;;;;;;;;;5062429;28;20534;-77
2023/08/25 11:33:55;;;;;;;17.92;1.08;;;;;;;;;;5063269;28;20041;-79
2023/08/25 11:36:26;;;;;;;37.35;1.70;;;;;;;;;;5062487;28;20048;-76
2023/08/25 11:38:57;;;;;;;106.75;2.83;;;;;;;;;;5062350;28;20963;-76
2023/08/25 11:41:28;;;;;;;62.95;1.70;;;;;;;;;;5062386;28;20095;-76
2023/08/25 11:43:59;;;;;;;57.28;2.22;;;;;;;;;;5061779;28;20056;-75
2023/08/25 11:46:32;;;;;;;60.63;1.92;;;;;;;;;;5061679;28;20523;-76
2023/08/25 11:49:04;;;;;;;22.88;1.45;;;;;;;;;;5061696;28;20392;-76
2023/08/25 11:51:35;;;;;;;8.57;0.90;;;;;;;;;;5061941;28;20411;-75
2023/08/25 11:54:07;;;;;;;9.77;1.05;;;;;;;;;;5060746;28;20044;-77
2023/08/25 11:56:38;;;;;;;41.17;1.63;;;;;;;;;;5061943;28;20048;-76
2023/08/25 11:59:10;;;;;;;33.20;1.40;;;;;;;;;;5062088;28;20586;-76
2023/08/25 12:01:40;;;;;;;30.73;1.88;;;;;;;;;;5060874;28;20422;-75
2023/08/25 12:04:23;;;;;;;59.35;1.83;;;;;;;;;;5060709;28;20432;-76
2023/08/25 12:06:57;;;;;;;38.22;1.60;;;;;;;;;;5061668;28;20523;-76
2023/08/25 12:09:28;;;;;;;22.10;1.20;;;;;;;;;;5061655;28;20513;-75
2023/08/25 12:11:58;;;;;;;42.50;1.83;;;;;;;;;;5061727;28;20056;-76
2023/08/25 12:14:31;;;;;;;31.02;1.30;;;;;;;;;;5061707;28;20044;-75
2023/08/25 12:17:02;;;;;;;7.80;1.70;;;;;;;;;;5061530;28;20052;-75
2023/08/25 12:19:36;;;;;;;42.35;2.38;;;;;;;;;;5061910;28;20037;-75
2023/08/25 12:22:06;;;;;;;35.90;1.75;;;;;;;;;;5061621;28;20056;-76
2023/08/25 12:24:37;;;;;;;32.10;1.90;;;;;;;;;;5062099;28;20412;-75
2023/08/25 12:27:08;;;;;;;5.13;1.50;;;;;;;;;;5064988;28;20048;-75
2023/08/25 12:29:39;;;;;;;6.85;4.32;;;;;;;;;;5065995;28;20048;-75
2023/08/25 12:32:10;;;;;;;38.13;1.63;;;;;;;;;;5065802;28;20406;-75
2023/08/25 12:34:42;;;;;;;11.63;1.20;;;;;;;;;;5065563;28;20534;-75
2023/08/25 12:37:15;;;;;;;21.63;1.30;;;;;;;;;;5065465;28;20048;-76
2023/08/25 12:39:46;;;;;;;2.75;1.75;;;;;;;;;;5065331;28;20048;-75
2023/08/25 12:42:20;;;;;;;6.75;1.70;;;;;;;;;;5065727;28;20052;-76
2023/08/25 12:44:50;;;;;;;7.85;2.05;;;;;;;;;;5065694;28;20048;-75
2023/08/25 12:47:22;;;;;;;4.15;1.25;;;;;;;;;;5065270;28;20044;-76
2023/08/25 12:49:53;;;;;;;14.27;3.38;;;;;;;;;;5063534;28;20056;-75
2023/08/25 12:52:24;;;;;;;2.78;1.42;;;;;;;;;;5065164;28;20045;-76
2023/08/25 12:54:56;;;;;;;2.25;1.40;;;;;;;;;;5065287;28;20052;-75
2023/08/25 12:57:49;;;;;;;1.83;1.35;;;;;;;;;;5065085;28;20491;-75
2023/08/25 13:00:21;;;;;;;2.72;1.35;;;;;;;;;;5065895;28;20071;-76
2023/08/25 13:02:52;;;;;;;2.13;1.35;;;;;;;;;;5065187;28;20049;-75
2023/08/25 13:05:23;;;;;;;2.58;1.20;;;;;;;;;;5063277;28;20522;-77
2023/08/25 13:07:54;;;;;;;7.25;1.75;;;;;;;;;;5062928;28;20040;-75
2023/08/25 13:10:27;;;;;;;3.67;1.50;;;;;;;;;;5065071;28;20052;-76
2023/08/25 13:12:58;;;;;;;3.53;1.23;;;;;;;;;;5064406;28;20044;-78
2023/08/25 13:15:29;;;;;;;6.70;1.40;;;;;;;;;;5063372;28;20626;-76
2023/08/25 13:18:04;;;;;;;1.42;1.08;;;;;;;;;;5064524;28;20051;-80
2023/08/25 13:20:34;;;;;;;4.18;1.50;;;;;;;;;;5064341;28;20048;-76
2023/08/25 13:23:05;;;;;;;3.13;1.20;;;;;;;;;;5064076;28;20057;-78
2023/08/25 13:25:50;;;;;;;3.42;1.52;;;;;;;;;;5065349;28;20705;-77
2023/08/25 13:28:20;;;;;;;2.05;1.10;;;;;;;;;;5064146;28;20045;-75
2023/08/25 13:30:52;;;;;;;3.05;1.20;;;;;;;;;;5064756;28;20052;-78
2023/08/25 13:33:22;;;;;;;3.25;1.20;;;;;;;;;;5061969;28;20052;-76
2023/08/25 13:35:55;;;;;;;1.83;1.20;;;;;;;;;;5064030;28;20057;-82
2023/08/25 13:38:26;;;;;;;4.95;1.20;;;;;;;;;;5062885;28;20044;-76
2023/08/25 13:40:57;;;;;;;3.17;1.10;;;;;;;;;;5063953;28;21275;-77
2023/08/25 13:43:28;;;;;;;3.53;1.10;;;;;;;;;;5062337;28;20048;-76
2023/08/25 13:45:59;;;;;;;2.67;0.90;;;;;;;;;;5064466;28;20049;-77
2023/08/25 13:48:32;;;;;;;1.70;1.05;;;;;;;;;;5064716;28;20044;-78
2023/08/25 13:51:05;;;;;;;9.85;1.77;;;;;;;;;;5063315;28;20504;-77
2023/08/25 13:53:37;;;;;;;5.13;1.17;;;;;;;;;;5064090;28;20044;-76
2023/08/25 13:56:08;;;;;;;3.40;1.08;;;;;;;;;;5063126;28;20044;-77
2023/08/25 13:58:39;;;;;;;1.20;0.90;;;;;;;;;;5063854;28;20499;-76
2023/08/25 14:01:12;;;;;;;3.42;1.10;;;;;;;;;;5064145;28;20048;-77
2023/08/25 14:03:42;;;;;;;2.17;0.65;;;;;;;;;;5064007;28;20067;-74
2023/08/25 14:06:15;;;;;;;2.60;1.10;;;;;;;;;;5063754;28;21237;-74
2023/08/25 14:08:47;;;;;;;2.65;0.80;;;;;;;;;;5063156;28;20051;-78
2023/08/25 14:11:19;;;;;;;3.33;1.02;;;;;;;;;;5063050;28;20045;-75
2023/08/25 14:13:49;;;;;;;2.70;0.95;;;;;;;;;;5061588;28;20057;-77
2023/08/25 14:16:20;;;;;;;3.58;1.05;;;;;;;;;;5062497;28;20044;-77
2023/08/25 14:18:51;;;;;;;1.00;0.70;;;;;;;;;;5061388;28;20045;-81
2023/08/25 14:21:23;;;;;;;2.90;1.00;;;;;;;;;;5062971;28;20059;-75
2023/08/25 14:23:54;;;;;;;2.55;0.73;;;;;;;;;;5062458;28;20060;-77
2023/08/25 14:26:28;;;;;;;1.48;0.60;;;;;;;;;;5061528;28;20045;-77
2023/08/25 14:28:59;;;;;;;0.63;0.50;;;;;;;;;;5063134;28;20052;-76
2023/08/25 14:31:31;;;;;;;1.45;0.80;;;;;;;;;;5062537;28;20143;-76
2023/08/25 14:34:04;;;;;;;0.95;0.47;;;;;;;;;;5062844;28;20407;-76
2023/08/25 14:36:35;;;;;;;1.90;0.50;;;;;;;;;;5062460;28;20044;-76
2023/08/25 14:39:07;;;;;;;2.53;0.40;;;;;;;;;;5063031;28;20055;-76
2023/08/25 14:41:38;;;;;;;0.80;0.43;;;;;;;;;;5062371;28;20044;-76
2023/08/25 14:44:08;;;;;;;0.28;0.20;;;;;;;;;;5060608;28;20421;-77
2023/08/25 14:46:39;;;;;;;1.60;0.45;;;;;;;;;;5062499;28;20415;-75
2023/08/25 14:49:11;;;;;;;2.67;0.45;;;;;;;;;;5062972;28;20399;-76
2023/08/25 14:51:43;;;;;;;0.50;0.47;;;;;;;;;;5062323;28;20048;-77
2023/08/25 14:54:13;;;;;;;0.82;0.60;;;;;;;;;;5062841;28;20048;-77
2023/08/25 14:56:44;;;;;;;1.98;0.50;;;;;;;;;;5062441;28;20546;-76
2023/08/25 14:59:15;;;;;;;3.40;0.60;;;;;;;;;;5062595;28;20056;-77
2023/08/25 15:01:47;;;;;;;1.08;0.35;;;;;;;;;;5062441;28;20621;-78
2023/08/25 15:04:17;;;;;;;1.25;0.63;;;;;;;;;;5061934;28;20049;-77
2023/08/25 15:06:48;;;;;;;2.25;0.60;;;;;;;;;;5062442;28;20045;-76
2023/08/25 15:09:20;;;;;;;2.58;0.70;;;;;;;;;;5062540;28;20063;-76